Nearby METAR Reports

 

K1V6 - Canon City, Colorado, USA
Distance from station: NE 34mi, 55km
Updated: 12/01/2021 10:55am MST
Clear
Clear
 Wind from W
Wind: W 17 mph , 28 km/h
Temperature: 68°F , 20°C
Dew Point: 23°F , -5°C
Humidity: 18%
Barometer: 30.20 inHg , 1022.7 hPa
Clouds: Clear
Visibility: 10 miles , 16 km
2021/12/01 17:55 K1V6 011755Z AUTO 28015KT 10SM CLR 20/M05 A3020 RMK AO2
K04V - Saguache Muni, Colorado, USA
Distance from station: W 35mi, 56km
Updated: 12/01/2021 10:55am MST
Clear
Clear
 Wind from SE
Wind: SE 8 mph , 13 km/h
Temperature: 50°F , 10°C
Wind Chill: 47°F , 8°C
Dew Point: 9°F , -13°C
Humidity: 19%
Barometer: 30.43 inHg , 1030.5 hPa
Clouds: Clear
Visibility: 10 miles , 16 km
2021/12/01 17:55 K04V 011755Z AUTO 13007KT 10SM CLR 10/M13 A3043 RMK AO2
 
KANK - Salida, Colorado, USA
Distance from station: NW 43mi, 69km
Updated: 12/01/2021 10:55am MST
Clear
Clear
 Wind from N
Wind: N 7 mph , 11 km/h
Temperature: 55°F , 13°C
Dew Point: 16°F , -9°C
Humidity: 21%
Barometer: 30.44 inHg , 1030.8 hPa
Clouds: Clear
Visibility: 10 miles , 16 km
2021/12/01 17:55 KANK 011755Z AUTO 35006KT 10SM CLR 13/M09 A3044 RMK AO1 T01311095 10131 20046
KVTP - La Veta Pass, Colorado, USA
Distance from station: SSE 44mi, 71km
Updated: 12/01/2021 10:55am MST
Clear
Clear
 Wind from W
Wind: W 12 mph , 19 km/h
Temperature: 37°F , 3°C
Wind Chill: 29°F , -2°C
Dew Point: 10°F , -12°C
Humidity: 33%
Barometer: 30.46 inHg , 1031.5 hPa
Clouds: Clear
Visibility: 10 miles , 16 km
2021/12/01 17:55 KVTP 011755Z AUTO 27010KT 10SM CLR 03/M12 A3046 RMK AO2
 
KALS - Alamosa, Colorado, USA
Distance from station: SSW 48mi, 77km
Updated: 12/01/2021 10:52am MST
Clear
Clear
 Wind from varies
Wind: varies 5 mph , 7 km/h
Temperature: 45°F , 7°C
Wind Chill: 42°F , 6°C
Dew Point: 12°F , -11°C
Humidity: 27%
Barometer: 30.41 inHg , 1029.8 hPa
Clouds: Clear
Visibility: 10 miles , 16 km
2021/12/01 17:52 KALS 011752Z AUTO VRB04KT 10SM CLR 07/M11 A3041 RMK AO2 SLP299 T00721111 10072 21122 50005